Time;durP1;ratioP1;P1;durP2;ratioP2;P2;SDS_P1;SDS_P2;PMS_P1;PMS_P2;Temp;Humidity;BMP_temperature;BMP_pressure;BME280_temperature;BME280_humidity;BME280_pressure;Samples;Min_cycle;Max_cycle;Signal;HPM_P1;HPM_P2
2023/08/06 00:00:16;;;;;;;1999.90;999.90;;;14.10;99.90;;;;;;5106539;28;20028;-71
2023/08/06 00:02:42;;;;;;;1999.90;999.90;;;14.00;99.90;;;;;;5103426;28;20581;-70
2023/08/06 00:05:07;;;;;;;1999.90;999.90;;;13.90;99.90;;;;;;5104302;28;20038;-70
2023/08/06 00:07:33;;;;;;;1999.90;999.90;;;13.90;99.90;;;;;;5101014;28;20448;-70
2023/08/06 00:09:59;;;;;;;1999.90;999.90;;;13.80;99.90;;;;;;5106391;28;20035;-71
2023/08/06 00:12:24;;;;;;;1999.90;999.90;;;13.80;99.90;;;;;;5087937;28;20041;-71
2023/08/06 00:14:51;;;;;;;1999.90;999.90;;;13.70;99.90;;;;;;5100204;28;20119;-70
2023/08/06 00:17:17;;;;;;;1999.90;999.90;;;13.50;99.90;;;;;;5104928;28;20024;-71
2023/08/06 00:19:43;;;;;;;1999.90;999.90;;;13.50;99.90;;;;;;5102393;28;20023;-71
2023/08/06 00:22:08;;;;;;;1999.90;999.90;;;13.40;99.90;;;;;;5103940;28;20036;-71
2023/08/06 00:24:35;;;;;;;1999.90;999.90;;;13.40;99.90;;;;;;5100269;28;20031;-70
2023/08/06 00:27:00;;;;;;;1999.90;999.90;;;13.30;99.90;;;;;;5086892;28;20027;-71
2023/08/06 00:29:26;;;;;;;1999.90;999.90;;;13.30;99.90;;;;;;5088096;28;20040;-71
2023/08/06 00:31:52;;;;;;;1999.90;999.90;;;13.20;99.90;;;;;;5108225;28;20031;-70
2023/08/06 00:34:17;;;;;;;1999.90;999.90;;;13.10;99.90;;;;;;5101490;28;20024;-71
2023/08/06 00:36:43;;;;;;;1999.90;999.90;;;13.00;99.90;;;;;;5102948;28;20103;-71
2023/08/06 00:39:08;;;;;;;1999.90;999.90;;;12.90;99.90;;;;;;5085344;28;20073;-71
2023/08/06 00:41:34;;;;;;;1999.90;999.90;;;12.90;99.90;;;;;;5105533;28;20040;-71
2023/08/06 00:44:00;;;;;;;1999.90;999.90;;;12.80;99.90;;;;;;5106324;28;20038;-70
2023/08/06 00:46:26;;;;;;;1999.90;999.90;;;12.90;99.90;;;;;;5105225;28;20398;-71
2023/08/06 00:48:52;;;;;;;1999.90;999.90;;;12.80;99.90;;;;;;5106003;28;20559;-71
2023/08/06 00:51:19;;;;;;;1999.90;999.90;;;12.80;99.90;;;;;;5105314;28;20040;-71
2023/08/06 00:53:45;;;;;;;1999.90;999.90;;;12.70;99.90;;;;;;5104897;28;20024;-70
2023/08/06 00:56:11;;;;;;;1999.90;999.90;;;12.70;99.90;;;;;;5104419;28;20032;-71
2023/08/06 00:58:38;;;;;;;1999.90;999.90;;;12.60;99.90;;;;;;5102587;28;20444;-70
2023/08/06 01:01:04;;;;;;;1999.90;999.90;;;12.60;99.90;;;;;;5103876;28;20027;-71
2023/08/06 01:03:29;;;;;;;1999.90;999.90;;;12.60;99.90;;;;;;5102303;28;20032;-71
2023/08/06 01:05:55;;;;;;;1999.90;999.90;;;12.60;99.90;;;;;;5105012;28;20094;-71
2023/08/06 01:08:33;;;;;;;1999.90;999.90;;;12.60;99.90;;;;;;5087709;28;20135;-71
2023/08/06 01:11:05;;;;;;;1999.90;999.90;;;12.60;99.90;;;;;;5105860;28;20020;-71
2023/08/06 01:13:49;;;;;;;1999.90;999.90;;;12.50;99.90;;;;;;5105119;28;20027;-70
2023/08/06 01:16:20;;;;;;;1999.90;999.90;;;12.40;99.90;;;;;;5106416;28;20027;-71
2023/08/06 01:18:49;;;;;;;1999.90;999.90;;;12.50;99.90;;;;;;5084380;28;20031;-71
2023/08/06 01:21:15;;;;;;;1999.90;999.90;;;12.40;99.90;;;;;;5108325;28;20473;-71
2023/08/06 01:23:45;;;;;;;1999.90;999.90;;;12.50;99.90;;;;;;5109483;28;20089;-71
2023/08/06 01:26:32;;;;;;;1999.90;999.90;;;12.50;99.90;;;;;;5108118;28;20027;-71
2023/08/06 01:29:13;;;;;;;1999.90;999.90;;;12.50;99.90;;;;;;5108207;28;20032;-71
2023/08/06 01:31:43;;;;;;;1999.90;999.90;;;12.50;99.90;;;;;;5109031;28;20035;-71
2023/08/06 01:34:17;;;;;;;1999.90;999.90;;;12.50;99.90;;;;;;5105578;28;20050;-71
2023/08/06 01:36:43;;;;;;;1999.90;999.90;;;12.50;99.90;;;;;;5109130;28;20474;-70
2023/08/06 01:39:09;;;;;;;1999.90;999.90;;;12.50;99.90;;;;;;5106094;28;20028;-71
2023/08/06 01:41:34;;;;;;;1999.90;999.90;;;12.40;99.90;;;;;;5105137;28;20043;-71
2023/08/06 01:44:00;;;;;;;1999.90;999.90;;;12.40;99.90;;;;;;5106497;28;20057;-70
2023/08/06 01:46:26;;;;;;;1999.90;999.90;;;12.30;99.90;;;;;;5106861;27;20433;-71
2023/08/06 01:48:51;;;;;;;1999.90;999.90;;;12.30;99.90;;;;;;5104053;28;20035;-71
2023/08/06 01:51:17;;;;;;;1999.90;999.90;;;12.30;99.90;;;;;;5107938;28;20039;-71
2023/08/06 01:53:43;;;;;;;1999.90;999.90;;;12.30;99.90;;;;;;5107828;28;20035;-71
2023/08/06 01:56:08;;;;;;;1999.90;999.90;;;12.30;99.90;;;;;;5103817;28;20047;-72
2023/08/06 01:58:34;;;;;;;1999.90;999.90;;;12.30;99.90;;;;;;5110707;28;20562;-71
2023/08/06 02:01:01;;;;;;;1999.90;999.90;;;12.20;99.90;;;;;;5105457;27;20477;-71
2023/08/06 02:03:27;;;;;;;1999.90;999.90;;;12.20;99.90;;;;;;5109604;28;20036;-71
2023/08/06 02:05:52;;;;;;;1999.90;999.90;;;12.20;99.90;;;;;;5104751;28;20542;-71
2023/08/06 02:08:19;;;;;;;1999.90;999.90;;;12.20;99.90;;;;;;5086092;28;20024;-71
2023/08/06 02:10:45;;;;;;;1999.90;999.90;;;12.20;99.90;;;;;;5110058;28;20051;-71
2023/08/06 02:13:11;;;;;;;1999.90;999.90;;;12.10;99.90;;;;;;5110969;28;20028;-71
2023/08/06 02:15:47;;;;;;;1999.90;999.90;;;12.10;99.90;;;;;;5107591;27;20019;-71
2023/08/06 02:18:13;;;;;;;1999.90;999.90;;;12.00;99.90;;;;;;5105207;28;20682;-71
2023/08/06 02:20:39;;;;;;;1999.90;999.90;;;12.10;99.90;;;;;;5109031;27;20043;-71
2023/08/06 02:23:05;;;;;;;1999.90;999.90;;;12.00;99.90;;;;;;5107957;28;20034;-71
2023/08/06 02:25:30;;;;;;;1999.90;999.90;;;12.00;99.90;;;;;;5106921;28;20554;-71
2023/08/06 02:27:56;;;;;;;1999.90;999.90;;;12.00;99.90;;;;;;5108820;28;20038;-71
2023/08/06 02:30:21;;;;;;;1999.90;999.90;;;12.00;99.90;;;;;;5110135;27;20044;-71
2023/08/06 02:32:47;;;;;;;1999.90;999.90;;;11.90;99.90;;;;;;5107581;28;20027;-72
2023/08/06 02:35:13;;;;;;;1999.90;999.90;;;11.90;99.90;;;;;;5109009;28;20020;-70
2023/08/06 02:37:38;;;;;;;1999.90;999.90;;;11.90;99.90;;;;;;5107513;27;20694;-71
2023/08/06 02:40:04;;;;;;;1999.90;999.90;;;11.90;99.90;;;;;;5106530;28;20129;-71
2023/08/06 02:42:30;;;;;;;1999.90;999.90;;;11.90;99.90;;;;;;5110056;28;20035;-71
2023/08/06 02:44:56;;;;;;;1999.90;999.90;;;11.90;99.90;;;;;;5112549;27;20034;-71
2023/08/06 02:47:22;;;;;;;1999.90;999.90;;;11.80;99.90;;;;;;5105702;28;20028;-71
2023/08/06 02:49:47;;;;;;;1999.90;999.90;;;11.80;99.90;;;;;;5107794;28;20149;-70
2023/08/06 02:52:13;;;;;;;1999.90;999.90;;;11.80;99.90;;;;;;5107340;28;20394;-71
2023/08/06 02:54:39;;;;;;;1999.90;999.90;;;11.80;99.90;;;;;;5106816;27;20027;-70
2023/08/06 02:57:05;;;;;;;1999.90;999.90;;;11.80;99.90;;;;;;5104066;28;20521;-71
2023/08/06 02:59:31;;;;;;;1999.90;999.90;;;11.70;99.90;;;;;;5108258;28;20490;-71
2023/08/06 03:01:57;;;;;;;1999.90;999.90;;;11.70;99.90;;;;;;5103882;28;20580;-71
2023/08/06 03:04:23;;;;;;;1999.90;999.90;;;11.70;99.90;;;;;;5107099;28;20043;-71
2023/08/06 03:06:51;;;;;;;1999.90;999.90;;;11.60;99.90;;;;;;5104743;28;20036;-71
2023/08/06 03:09:17;;;;;;;1999.90;999.90;;;11.50;99.90;;;;;;5103535;28;20038;-71
2023/08/06 03:11:43;;;;;;;1999.90;999.90;;;11.50;99.90;;;;;;5103562;28;20043;-70
2023/08/06 03:14:09;;;;;;;1999.90;999.90;;;11.50;99.90;;;;;;5104700;27;20031;-71
2023/08/06 03:16:35;;;;;;;1999.90;999.90;;;11.50;99.90;;;;;;5102702;28;20036;-71
2023/08/06 03:19:01;;;;;;;1999.90;999.90;;;11.40;99.90;;;;;;5108694;28;20039;-71
2023/08/06 03:21:26;;;;;;;1999.90;999.90;;;11.30;99.90;;;;;;5104933;28;20648;-71
2023/08/06 03:23:52;;;;;;;1999.90;999.90;;;11.40;99.90;;;;;;5109311;27;20028;-71
2023/08/06 03:26:18;;;;;;;1999.90;999.90;;;11.30;99.90;;;;;;5107788;27;20027;-70
2023/08/06 03:28:43;;;;;;;1999.90;999.90;;;11.40;99.90;;;;;;5073451;28;20035;-71
2023/08/06 03:31:09;;;;;;;1999.90;999.90;;;11.30;99.90;;;;;;5103934;28;20028;-71
2023/08/06 03:33:35;;;;;;;1999.90;999.90;;;11.30;99.90;;;;;;5089136;28;20027;-71
2023/08/06 03:36:01;;;;;;;1999.90;999.90;;;11.40;99.90;;;;;;5104596;28;20031;-71
2023/08/06 03:38:27;;;;;;;1999.90;999.90;;;11.40;99.90;;;;;;5108263;28;20020;-71
2023/08/06 03:40:53;;;;;;;1999.90;999.90;;;11.40;99.90;;;;;;5107125;28;20040;-71
2023/08/06 03:43:19;;;;;;;1999.90;999.90;;;11.40;99.90;;;;;;5106082;28;20031;-70
2023/08/06 03:45:44;;;;;;;1999.90;999.90;;;11.40;99.90;;;;;;5104956;28;20035;-71
2023/08/06 03:48:10;;;;;;;1999.90;999.90;;;11.40;99.90;;;;;;5108235;28;20031;-72
2023/08/06 03:50:36;;;;;;;1999.90;999.90;;;11.40;99.90;;;;;;5107611;28;20034;-71
2023/08/06 03:53:02;;;;;;;1999.90;999.90;;;11.50;99.90;;;;;;5103525;28;20394;-71
2023/08/06 03:55:27;;;;;;;1999.90;999.90;;;11.50;99.90;;;;;;5102243;28;20028;-71
2023/08/06 03:57:53;;;;;;;1999.90;999.90;;;11.50;99.90;;;;;;5090587;28;20058;-71
2023/08/06 04:00:19;;;;;;;1999.90;999.90;;;11.60;99.90;;;;;;5088198;28;20482;-71
2023/08/06 04:02:44;;;;;;;1999.90;999.90;;;11.60;99.90;;;;;;5106340;28;20482;-71
2023/08/06 04:05:10;;;;;;;1999.90;999.90;;;11.70;99.90;;;;;;5107575;28;20122;-70
2023/08/06 04:07:36;;;;;;;1999.90;999.90;;;11.70;99.90;;;;;;5105853;28;20492;-71
2023/08/06 04:10:04;;;;;;;1999.90;999.90;;;11.80;99.90;;;;;;5104033;28;20060;-71
2023/08/06 04:12:30;;;;;;;1999.90;999.90;;;11.80;99.90;;;;;;5106454;28;20055;-71
2023/08/06 04:14:58;;;;;;;1999.90;999.90;;;11.80;99.90;;;;;;5104894;28;20059;-71
2023/08/06 04:17:24;;;;;;;1999.90;999.90;;;12.00;99.90;;;;;;5105426;28;20843;-71
2023/08/06 04:19:54;;;;;;;1999.90;999.90;;;11.90;99.90;;;;;;5105237;28;20027;-71
2023/08/06 04:22:20;;;;;;;1999.90;999.90;;;12.10;99.90;;;;;;5106300;28;20044;-70
2023/08/06 04:24:46;;;;;;;1999.90;999.90;;;12.20;99.90;;;;;;5102721;28;20524;-71
2023/08/06 04:27:13;;;;;;;1999.90;999.90;;;12.20;99.90;;;;;;5110165;28;20036;-71
2023/08/06 04:29:39;;;;;;;1999.90;999.90;;;12.20;99.90;;;;;;5110647;28;20027;-71
2023/08/06 04:32:06;;;;;;;1999.90;999.90;;;12.20;99.90;;;;;;5107811;28;20036;-71
2023/08/06 04:34:32;;;;;;;1999.90;999.90;;;12.30;99.90;;;;;;5107835;28;20055;-71
2023/08/06 04:36:58;;;;;;;1999.90;999.90;;;12.20;99.90;;;;;;5106701;28;20051;-71
2023/08/06 04:39:24;;;;;;;1999.90;999.90;;;12.40;99.90;;;;;;5106951;28;20070;-71
2023/08/06 04:41:50;;;;;;;1999.90;999.90;;;13.40;99.90;;;;;;5108502;28;20067;-71
2023/08/06 04:44:15;;;;;;;1999.90;999.90;;;13.40;99.90;;;;;;5106556;28;20028;-72
2023/08/06 04:46:41;;;;;;;1999.90;999.90;;;13.40;99.90;;;;;;5103761;28;20039;-73
2023/08/06 04:49:07;;;;;;;1999.90;999.90;;;13.60;99.90;;;;;;5107709;28;20032;-72
2023/08/06 04:51:32;;;;;;;1999.90;999.90;;;13.20;99.90;;;;;;5105432;28;20406;-72
2023/08/06 04:53:58;;;;;;;1999.90;999.90;;;13.10;99.90;;;;;;5101484;28;20036;-72
2023/08/06 04:56:24;;;;;;;1999.90;999.90;;;13.00;99.90;;;;;;5113828;28;20035;-71
2023/08/06 04:58:50;;;;;;;1999.90;999.90;;;13.20;99.90;;;;;;5110483;27;20020;-71
2023/08/06 05:01:15;;;;;;;1999.90;999.90;;;13.20;99.90;;;;;;5107433;28;20023;-71
2023/08/06 05:03:41;;;;;;;1999.90;999.90;;;13.30;99.90;;;;;;5108542;28;20085;-71
2023/08/06 05:06:08;;;;;;;1999.90;999.90;;;13.30;99.90;;;;;;5110393;28;20571;-71
2023/08/06 05:08:34;;;;;;;1999.90;999.90;;;13.20;99.90;;;;;;5111488;28;20043;-71
2023/08/06 05:11:00;;;;;;;1999.90;999.90;;;13.20;99.90;;;;;;5109877;28;20114;-71
2023/08/06 05:13:25;;;;;;;1999.90;999.90;;;13.10;99.90;;;;;;5109687;28;20031;-71
2023/08/06 05:15:53;;;;;;;1999.90;999.90;;;13.10;99.90;;;;;;5109370;27;20028;-71
2023/08/06 05:18:19;;;;;;;1999.90;999.90;;;13.10;99.90;;;;;;5111152;28;20081;-71
2023/08/06 05:20:45;;;;;;;1999.90;999.90;;;12.80;99.90;;;;;;5110802;28;20035;-71
2023/08/06 05:23:10;;;;;;;1999.90;999.90;;;12.80;99.90;;;;;;5109693;28;20043;-72
2023/08/06 05:25:37;;;;;;;1999.90;999.90;;;12.80;99.90;;;;;;5112253;27;20105;-71
2023/08/06 05:28:03;;;;;;;1999.90;999.90;;;12.40;99.90;;;;;;5109168;28;20478;-71
2023/08/06 05:30:29;;;;;;;1999.90;999.90;;;12.40;99.90;;;;;;5107866;27;20061;-71
2023/08/06 05:32:55;;;;;;;1999.90;999.90;;;12.60;99.90;;;;;;5108185;28;20028;-72
2023/08/06 05:35:21;;;;;;;1999.90;999.90;;;12.70;99.90;;;;;;5107620;28;20020;-71
2023/08/06 05:37:47;;;;;;;1999.90;999.90;;;12.70;99.90;;;;;;5109172;28;20028;-71
2023/08/06 05:40:12;;;;;;;1999.90;999.90;;;12.70;99.90;;;;;;5110615;27;20074;-71
2023/08/06 05:42:38;;;;;;;1999.90;999.90;;;12.70;99.90;;;;;;5107082;28;20085;-71
2023/08/06 05:45:04;;;;;;;1999.90;999.90;;;12.70;99.90;;;;;;5108906;28;20035;-71
2023/08/06 05:47:30;;;;;;;1999.90;999.90;;;12.70;99.90;;;;;;5109006;28;20035;-71
2023/08/06 05:49:56;;;;;;;1999.90;999.90;;;12.80;99.90;;;;;;5109123;28;20040;-72
2023/08/06 05:52:21;;;;;;;1999.90;999.90;;;12.70;99.90;;;;;;5089915;28;20035;-70
2023/08/06 05:54:47;;;;;;;1999.90;999.90;;;12.80;99.90;;;;;;5108499;27;20537;-71
2023/08/06 05:57:13;;;;;;;1999.90;999.90;;;12.80;99.90;;;;;;5109284;27;20047;-71
2023/08/06 05:59:41;;;;;;;1999.90;999.90;;;12.90;99.90;;;;;;5111271;28;20027;-72
2023/08/06 06:02:06;;;;;;;1999.90;999.90;;;13.10;99.90;;;;;;5109984;28;20139;-71
2023/08/06 06:04:32;;;;;;;1999.90;999.90;;;13.30;99.90;;;;;;5106278;27;20486;-70
2023/08/06 06:06:57;;;;;;;1999.90;999.90;;;13.40;99.90;;;;;;5106514;27;20028;-71
2023/08/06 06:09:23;;;;;;;1999.90;999.90;;;13.30;99.90;;;;;;5092948;28;20031;-72
2023/08/06 06:11:50;;;;;;;1999.90;999.90;;;13.20;99.90;;;;;;5108982;28;20452;-71
2023/08/06 06:14:18;;;;;;;1999.90;999.90;;;13.20;99.90;;;;;;5105049;28;20042;-71
2023/08/06 06:16:44;;;;;;;1999.90;999.90;;;13.30;99.90;;;;;;5107267;27;20397;-71
2023/08/06 06:19:10;;;;;;;1999.90;999.90;;;13.30;99.90;;;;;;5105553;28;20039;-71
2023/08/06 06:21:37;;;;;;;1999.90;999.90;;;13.10;99.90;;;;;;5105683;28;20085;-72
2023/08/06 06:24:03;;;;;;;1999.90;999.90;;;13.00;99.90;;;;;;5107042;28;20093;-71
2023/08/06 06:26:30;;;;;;;1999.90;999.90;;;12.90;99.90;;;;;;5108979;27;20532;-71
2023/08/06 06:28:55;;;;;;;1999.90;999.90;;;13.00;99.90;;;;;;5106882;28;20520;-71
2023/08/06 06:31:21;;;;;;;1999.90;999.90;;;13.10;99.90;;;;;;5105917;28;20031;-71
2023/08/06 06:33:47;;;;;;;1999.90;999.90;;;13.20;99.90;;;;;;5104808;28;20028;-71
2023/08/06 06:36:12;;;;;;;1999.90;999.90;;;13.40;99.90;;;;;;5104529;28;20046;-73
2023/08/06 06:38:38;;;;;;;1999.90;999.90;;;13.40;99.90;;;;;;5105338;27;20036;-72
2023/08/06 06:41:04;;;;;;;1999.90;999.90;;;13.50;99.90;;;;;;5107865;28;20528;-70
2023/08/06 06:43:30;;;;;;;1999.90;999.90;;;13.60;99.90;;;;;;5106876;28;20070;-71
2023/08/06 06:46:00;;;;;;;1999.90;999.90;;;13.60;99.90;;;;;;5099969;27;20031;-71
2023/08/06 06:48:32;;;;;;;1999.90;999.90;;;13.60;99.90;;;;;;5102281;28;20032;-72
2023/08/06 06:50:57;;;;;;;1999.90;999.90;;;13.90;99.90;;;;;;5101203;28;20513;-71
2023/08/06 06:53:30;;;;;;;1999.90;999.90;;;13.90;99.90;;;;;;5103903;27;20039;-72
2023/08/06 06:56:05;;;;;;;1999.90;999.90;;;13.90;99.90;;;;;;5090195;28;20486;-71
2023/08/06 06:58:31;;;;;;;1999.90;999.90;;;13.80;99.90;;;;;;5101360;28;20039;-70
2023/08/06 07:01:00;;;;;;;1999.90;999.90;;;13.90;99.90;;;;;;5099419;28;20298;-71
2023/08/06 07:03:26;;;;;;;1999.90;999.90;;;13.60;99.90;;;;;;5101764;28;20027;-71
2023/08/06 07:05:51;;;;;;;1999.90;999.90;;;13.30;99.90;;;;;;5103613;28;20108;-71
2023/08/06 07:08:17;;;;;;;1999.90;999.90;;;13.10;99.90;;;;;;5107322;27;20818;-71
2023/08/06 07:10:43;;;;;;;1999.90;999.90;;;12.90;99.90;;;;;;5104171;28;20023;-70
2023/08/06 07:13:10;;;;;;;1999.90;999.90;;;13.20;99.90;;;;;;5100452;28;20035;-71
2023/08/06 07:15:35;;;;;;;1999.90;999.90;;;13.00;99.90;;;;;;5102446;28;20111;-71
2023/08/06 07:18:01;;;;;;;1999.90;999.90;;;12.90;99.90;;;;;;5102760;28;20177;-71
2023/08/06 07:20:31;;;;;;;1999.90;999.90;;;13.00;99.90;;;;;;5105426;28;20020;-71
2023/08/06 07:22:57;;;;;;;1999.90;999.90;;;13.00;99.90;;;;;;5103170;28;20027;-71
2023/08/06 07:25:22;;;;;;;1999.90;999.90;;;12.90;99.90;;;;;;5107319;28;20277;-71
2023/08/06 07:27:48;;;;;;;1999.90;999.90;;;12.70;99.90;;;;;;5104422;28;20028;-72
2023/08/06 07:30:14;;;;;;;1999.90;999.90;;;12.70;99.90;;;;;;5102107;28;20042;-71
2023/08/06 07:32:39;;;;;;;1999.90;999.90;;;12.80;99.90;;;;;;5105424;28;20100;-72
2023/08/06 07:35:05;;;;;;;1999.90;999.90;;;12.90;99.90;;;;;;5108156;28;20052;-71
2023/08/06 07:37:31;;;;;;;1999.90;999.90;;;13.30;99.90;;;;;;5106822;28;20032;-72
2023/08/06 07:39:57;;;;;;;1999.90;999.90;;;14.00;99.90;;;;;;5108825;28;20118;-71
2023/08/06 07:42:22;;;;;;;1999.90;999.90;;;14.20;99.90;;;;;;5107188;28;20517;-74
2023/08/06 07:44:56;;;;;;;1999.90;999.90;;;14.20;99.90;;;;;;5105140;28;20035;-70
2023/08/06 07:47:21;;;;;;;1999.90;999.90;;;13.90;99.90;;;;;;5108859;28;20081;-70
2023/08/06 07:49:47;;;;;;;1999.90;999.90;;;14.10;99.90;;;;;;5103453;28;20032;-70
2023/08/06 07:52:13;;;;;;;1999.90;999.90;;;14.00;99.90;;;;;;5104790;28;20114;-70
2023/08/06 07:54:39;;;;;;;1999.90;999.90;;;13.80;99.90;;;;;;5103982;28;20040;-70
2023/08/06 07:57:05;;;;;;;1999.90;999.90;;;13.90;99.90;;;;;;5104321;28;20101;-71
2023/08/06 07:59:30;;;;;;;1999.90;999.90;;;13.90;99.90;;;;;;5105314;28;20024;-71
2023/08/06 08:01:56;;;;;;;1999.90;999.90;;;14.00;93.80;;;;;;5102221;28;20023;-70
2023/08/06 08:04:22;;;;;;;1999.90;999.90;;;14.10;91.40;;;;;;5104701;28;20036;-70
2023/08/06 08:06:47;;;;;;;1999.90;999.90;;;14.20;90.40;;;;;;5106931;28;20493;-70
2023/08/06 08:09:16;;;;;;;1999.90;999.90;;;14.50;90.80;;;;;;5087920;28;20529;-70
2023/08/06 08:11:42;;;;;;;1999.90;999.90;;;15.20;88.70;;;;;;5104530;28;20067;-71
2023/08/06 08:14:08;;;;;;;1999.90;999.90;;;14.90;86.30;;;;;;5105183;28;20077;-71
2023/08/06 08:16:33;;;;;;;1999.90;999.90;;;14.80;87.30;;;;;;5104266;28;20032;-71
2023/08/06 08:18:59;;;;;;;1999.90;999.90;;;15.10;86.60;;;;;;5100844;28;20502;-71
2023/08/06 08:21:25;;;;;;;1999.90;999.90;;;15.10;86.10;;;;;;5105874;28;20035;-71
2023/08/06 08:23:51;;;;;;;1999.90;999.90;;;14.90;85.80;;;;;;5104788;28;20115;-71
2023/08/06 08:26:17;;;;;;;1999.90;999.90;;;14.90;84.80;;;;;;5103698;28;20050;-71
2023/08/06 08:28:43;;;;;;;1999.90;999.90;;;14.80;83.70;;;;;;5100150;28;20031;-71
2023/08/06 08:31:09;;;;;;;1999.90;999.90;;;14.80;84.70;;;;;;5101654;28;20032;-71
2023/08/06 08:33:35;;;;;;;1999.90;999.90;;;14.80;85.90;;;;;;5110878;28;20055;-71
2023/08/06 08:36:01;;;;;;;1999.90;999.90;;;15.10;84.80;;;;;;5107970;28;20064;-71
2023/08/06 08:38:27;;;;;;;1999.90;999.90;;;15.20;82.90;;;;;;5105118;28;20431;-71
2023/08/06 08:40:54;;;;;;;1999.90;999.90;;;15.20;82.90;;;;;;5088997;28;20086;-71
2023/08/06 08:43:23;;;;;;;1999.90;999.90;;;15.30;82.60;;;;;;5087669;28;20061;-72
2023/08/06 08:46:00;;;;;;;1999.90;999.90;;;15.80;82.30;;;;;;5105563;28;20035;-71
2023/08/06 08:48:26;;;;;;;1999.90;999.90;;;15.90;81.80;;;;;;5102971;28;20039;-71
2023/08/06 08:50:53;;;;;;;1999.90;999.90;;;15.50;80.60;;;;;;5088798;28;20496;-71
2023/08/06 08:53:20;;;;;;;1999.90;999.90;;;15.10;83.80;;;;;;5106092;28;20111;-71
2023/08/06 08:55:48;;;;;;;1999.90;999.90;;;14.90;86.80;;;;;;5105497;28;20073;-72
2023/08/06 08:58:15;;;;;;;1999.90;999.90;;;14.70;85.50;;;;;;5107890;28;20048;-72
2023/08/06 09:00:42;;;;;;;1999.90;999.90;;;14.50;85.80;;;;;;5112743;28;20020;-71
2023/08/06 09:03:08;;;;;;;1999.90;999.90;;;14.50;86.50;;;;;;5107523;27;20028;-72
2023/08/06 09:05:34;;;;;;;1999.90;999.90;;;14.30;88.50;;;;;;5090338;28;20027;-72
2023/08/06 09:08:03;;;;;;;1999.90;999.90;;;14.10;89.00;;;;;;5105915;28;20028;-72
2023/08/06 09:10:29;;;;;;;1999.90;999.90;;;14.10;89.90;;;;;;5106302;28;20023;-71
2023/08/06 09:12:56;;;;;;;1999.90;999.90;;;13.90;90.50;;;;;;5104132;28;20433;-71
2023/08/06 09:15:26;;;;;;;1999.90;999.90;;;13.70;92.10;;;;;;5089651;28;20363;-74
2023/08/06 09:17:53;;;;;;;1999.90;999.90;;;13.30;92.60;;;;;;5103149;28;20072;-75
2023/08/06 09:20:19;;;;;;;1999.90;999.90;;;13.00;99.90;;;;;;5106303;28;20028;-75
2023/08/06 09:22:45;;;;;;;1999.90;999.90;;;12.80;99.90;;;;;;5103138;28;20039;-74
2023/08/06 09:25:13;;;;;;;1999.90;999.90;;;12.70;99.90;;;;;;5101119;28;20032;-75
2023/08/06 09:27:39;;;;;;;1999.90;999.90;;;12.80;99.90;;;;;;5100353;28;20032;-74
2023/08/06 09:30:07;;;;;;;1999.90;999.90;;;12.80;99.90;;;;;;5106775;28;20031;-74
2023/08/06 09:32:51;;;;;;;1999.90;999.90;;;12.90;99.90;;;;;;5074454;28;20705;-74
2023/08/06 09:35:19;;;;;;;1999.90;999.90;;;13.00;99.90;;;;;;5105437;28;20162;-72
2023/08/06 09:37:45;;;;;;;1999.90;999.90;;;13.10;99.90;;;;;;5104521;28;20412;-74
2023/08/06 09:40:40;;;;;;;1999.90;999.90;;;13.20;99.90;;;;;;5089264;28;20027;-72
2023/08/06 09:43:06;;;;;;;1999.90;999.90;;;13.20;99.90;;;;;;5086013;28;20143;-74
2023/08/06 09:45:34;;;;;;;1999.90;999.90;;;13.30;99.90;;;;;;5107376;27;20628;-73
2023/08/06 09:48:05;;;;;;;1999.90;999.90;;;13.60;99.90;;;;;;5103232;28;20035;-73
2023/08/06 09:50:31;;;;;;;;;;;13.70;99.90;;;;;;5104718;27;20032;-73
2023/08/06 09:52:58;;;;;;;1999.90;999.90;;;13.90;99.90;;;;;;5087925;28;20393;-80
2023/08/06 09:55:26;;;;;;;1999.90;999.90;;;14.20;99.90;;;;;;5107715;27;20028;-72
2023/08/06 09:57:52;;;;;;;1999.90;999.90;;;13.90;99.90;;;;;;5107327;28;20131;-74
2023/08/06 10:00:18;;;;;;;1999.90;999.90;;;13.90;99.90;;;;;;5109191;27;20030;-75
2023/08/06 10:03:03;;;;;;;1999.90;999.90;;;13.50;99.90;;;;;;5071334;28;20031;-74
2023/08/06 10:05:31;;;;;;;1999.90;999.90;;;13.40;99.90;;;;;;5105752;28;20112;-78
2023/08/06 10:07:59;;;;;;;1999.90;999.90;;;13.40;99.90;;;;;;5088391;28;20093;-74
2023/08/06 10:10:26;;;;;;;1999.90;999.90;;;13.30;99.90;;;;;;5103322;28;20032;-79
2023/08/06 10:13:00;;;;;;;1999.90;999.90;;;13.40;99.90;;;;;;5104845;28;20043;-82
2023/08/06 10:15:28;;;;;;;1999.90;999.90;;;13.40;99.90;;;;;;5102258;28;20024;-77
2023/08/06 10:17:57;;;;;;;1999.90;999.90;;;13.50;99.90;;;;;;5106204;28;20812;-74
2023/08/06 10:20:23;;;;;;;1999.90;999.90;;;13.60;99.90;;;;;;5091388;28;20035;-76
2023/08/06 10:23:06;;;;;;;1999.90;999.90;;;13.60;99.90;;;;;;5101505;28;20058;-75
2023/08/06 10:25:41;;;;;;;1999.90;999.90;;;13.70;99.90;;;;;;5105469;28;20080;-73
2023/08/06 10:28:17;;;;;;;1999.90;999.90;;;13.50;99.90;;;;;;5103978;28;20043;-76
2023/08/06 10:30:47;;;;;;;1999.90;999.90;;;13.50;99.90;;;;;;5105534;28;20089;-73
2023/08/06 10:33:13;;;;;;;1999.90;999.90;;;13.60;99.90;;;;;;5101172;27;20447;-73
2023/08/06 10:35:53;;;;;;;1999.90;999.90;;;13.70;99.90;;;;;;5103389;27;20055;-74
2023/08/06 10:38:32;;;;;;;1999.90;999.90;;;13.90;99.90;;;;;;5106653;27;20038;-72
2023/08/06 10:40:57;;;;;;;1999.90;999.90;;;13.90;99.90;;;;;;5090212;28;20036;-70
2023/08/06 10:43:29;;;;;;;1999.90;999.90;;;14.00;99.90;;;;;;5106758;28;20549;-73
2023/08/06 10:45:55;;;;;;;1999.90;999.90;;;13.80;99.90;;;;;;5107427;27;20031;-72
2023/08/06 10:48:33;;;;;;;1999.90;999.90;;;13.70;99.90;;;;;;5109399;28;20031;-72
2023/08/06 10:51:00;;;;;;;1999.90;999.90;;;13.90;99.90;;;;;;5086695;28;20108;-73
2023/08/06 10:53:26;;;;;;;1999.90;999.90;;;13.70;99.90;;;;;;5086541;28;20042;-72
2023/08/06 10:55:52;;;;;;;1999.90;999.90;;;13.60;99.90;;;;;;5104426;28;20028;-74
2023/08/06 10:58:17;;;;;;;1999.90;999.90;;;13.70;99.90;;;;;;5104177;28;20393;-73
2023/08/06 11:00:43;;;;;;;1999.90;999.90;;;13.60;99.90;;;;;;5106220;28;20770;-73
2023/08/06 11:03:09;;;;;;;1999.90;999.90;;;13.50;99.90;;;;;;5101692;28;20486;-74
2023/08/06 11:05:35;;;;;;;1999.90;999.90;;;13.40;99.90;;;;;;5105621;28;20031;-74
2023/08/06 11:08:02;;;;;;;1999.90;999.90;;;13.20;99.90;;;;;;5090766;28;20027;-73
2023/08/06 11:10:28;;;;;;;1999.90;999.90;;;13.20;99.90;;;;;;5103199;28;20031;-74
2023/08/06 11:12:53;;;;;;;1999.90;999.90;;;13.00;99.90;;;;;;5107342;28;20068;-73
2023/08/06 11:15:21;;;;;;;1999.90;999.90;;;12.70;99.90;;;;;;5108770;28;20051;-74
2023/08/06 11:17:47;;;;;;;1999.90;999.90;;;12.60;99.90;;;;;;5107668;28;20062;-75
2023/08/06 11:20:13;;;;;;;1999.90;999.90;;;12.50;99.90;;;;;;5107820;28;20055;-75
2023/08/06 11:22:38;;;;;;;1999.90;999.90;;;12.60;99.90;;;;;;5075932;27;20895;-73
2023/08/06 11:25:07;;;;;;;1999.90;999.90;;;12.70;99.90;;;;;;5102698;28;20031;-76
2023/08/06 11:27:33;;;;;;;1999.90;999.90;;;12.70;99.90;;;;;;5105991;28;20035;-72
2023/08/06 11:29:59;;;;;;;1999.90;999.90;;;12.70;99.90;;;;;;5105481;28;20042;-74
2023/08/06 11:32:24;;;;;;;1999.90;999.90;;;12.80;99.90;;;;;;5101362;28;20540;-74
2023/08/06 11:34:50;;;;;;;1999.90;999.90;;;12.80;99.90;;;;;;5086830;28;20024;-74
2023/08/06 11:37:16;;;;;;;1999.90;999.90;;;12.90;99.90;;;;;;5107064;28;20081;-77
2023/08/06 11:39:48;;;;;;;1999.90;999.90;;;12.90;99.90;;;;;;5103048;28;20022;-75
2023/08/06 11:42:15;;;;;;;1999.90;999.90;;;13.00;99.90;;;;;;5104893;28;20505;-75
2023/08/06 11:44:47;;;;;;;1999.90;999.90;;;13.00;99.90;;;;;;5102631;28;20035;-74
2023/08/06 11:47:16;;;;;;;1999.90;999.90;;;12.90;99.90;;;;;;5103898;28;20489;-75
2023/08/06 11:49:49;;;;;;;1999.90;999.90;;;12.90;99.90;;;;;;5105923;28;20057;-74
2023/08/06 11:52:15;;;;;;;1999.90;999.90;;;12.70;99.90;;;;;;5102817;28;20927;-74
2023/08/06 11:54:41;;;;;;;1999.90;999.90;;;13.00;99.90;;;;;;5102702;28;20027;-75
2023/08/06 11:57:07;;;;;;;1999.90;999.90;;;13.20;99.90;;;;;;5100810;28;20401;-77